Time;durP1;ratioP1;P1;durP2;ratioP2;P2;SDS_P1;SDS_P2;PMS_P1;PMS_P2;Temp;Humidity;BMP_temperature;BMP_pressure;BME280_temperature;BME280_humidity;BME280_pressure;Samples;Min_cycle;Max_cycle;Signal;HPM_P1;HPM_P2
2023/04/30 00:01:40;;;;;;;12.02;4.57;;;7.50;99.90;;;;;;5031018;28;20038;-74
2023/04/30 00:04:06;;;;;;;8.50;4.55;;;7.50;99.90;;;;;;5015873;28;20106;-74
2023/04/30 00:06:32;;;;;;;9.85;3.97;;;7.40;99.90;;;;;;5031318;28;20041;-74
2023/04/30 00:08:57;;;;;;;13.45;4.80;;;7.40;99.90;;;;;;5014744;28;20046;-74
2023/04/30 00:11:24;;;;;;;9.50;4.50;;;7.40;99.90;;;;;;5031071;28;20052;-74
2023/04/30 00:13:50;;;;;;;12.02;5.30;;;7.30;99.90;;;;;;5014666;28;20075;-74
2023/04/30 00:16:17;;;;;;;9.95;4.53;;;7.30;99.90;;;;;;5030829;28;20073;-74
2023/04/30 00:18:43;;;;;;;8.25;4.05;;;7.30;99.90;;;;;;5000057;28;20454;-74
2023/04/30 00:21:09;;;;;;;11.38;4.80;;;7.20;99.90;;;;;;5016292;28;20107;-74
2023/04/30 00:23:34;;;;;;;11.90;5.28;;;7.20;99.90;;;;;;5014911;28;20045;-74
2023/04/30 00:26:00;;;;;;;10.73;4.95;;;7.10;99.90;;;;;;5016500;28;20129;-74
2023/04/30 00:28:26;;;;;;;10.45;4.72;;;7.10;99.90;;;;;;5002826;28;20050;-74
2023/04/30 00:30:52;;;;;;;12.55;4.50;;;7.10;99.90;;;;;;5034888;28;20072;-74
2023/04/30 00:33:18;;;;;;;10.45;4.40;;;7.00;99.90;;;;;;5035448;28;20125;-74
2023/04/30 00:35:44;;;;;;;10.30;4.10;;;7.00;99.90;;;;;;5037389;28;20106;-74
2023/04/30 00:38:09;;;;;;;9.82;4.35;;;7.00;99.90;;;;;;5001629;28;20030;-74
2023/04/30 00:40:37;;;;;;;11.40;4.85;;;7.00;99.90;;;;;;5014909;28;20104;-73
2023/04/30 00:43:03;;;;;;;10.63;3.85;;;6.90;99.90;;;;;;5014981;28;20038;-73
2023/04/30 00:45:28;;;;;;;8.60;4.18;;;6.90;99.90;;;;;;5029665;28;20038;-73
2023/04/30 00:47:54;;;;;;;10.90;4.63;;;6.90;99.90;;;;;;5012989;28;20042;-73
2023/04/30 00:50:21;;;;;;;9.57;4.32;;;6.90;99.90;;;;;;5014635;28;20041;-73
2023/04/30 00:52:47;;;;;;;12.55;4.32;;;6.80;99.90;;;;;;5030168;28;20083;-73
2023/04/30 00:55:13;;;;;;;12.00;4.18;;;6.80;99.90;;;;;;5013271;28;20042;-74
2023/04/30 00:57:42;;;;;;;10.95;4.55;;;6.70;99.90;;;;;;5013920;28;20516;-73
2023/04/30 01:00:10;;;;;;;8.38;4.00;;;6.70;99.90;;;;;;4995878;28;20041;-73
2023/04/30 01:02:39;;;;;;;15.07;4.55;;;6.70;99.90;;;;;;4993766;28;20036;-73
2023/04/30 01:05:06;;;;;;;7.03;3.97;;;6.60;99.90;;;;;;5031423;28;20075;-73
2023/04/30 01:07:37;;;;;;;10.23;4.03;;;6.60;99.90;;;;;;5014570;28;20048;-73
2023/04/30 01:10:03;;;;;;;8.18;3.58;;;6.50;99.90;;;;;;5015843;28;20045;-73
2023/04/30 01:12:54;;;;;;;11.35;4.10;;;6.50;99.90;;;;;;5014398;28;20037;-73
2023/04/30 01:15:49;;;;;;;13.18;4.07;;;6.50;99.90;;;;;;5031591;28;20395;-73
2023/04/30 01:18:19;;;;;;;10.32;4.03;;;6.40;99.90;;;;;;5010696;28;20338;-73
2023/04/30 01:20:52;;;;;;;12.45;4.30;;;6.40;99.90;;;;;;5029746;28;20117;-73
2023/04/30 01:23:58;;;;;;;8.05;3.83;;;6.30;99.90;;;;;;5013368;28;20041;-73
2023/04/30 01:26:59;;;;;;;8.90;3.92;;;6.30;99.90;;;;;;5013972;28;20049;-73
2023/04/30 01:29:26;;;;;;;9.27;4.03;;;6.30;99.90;;;;;;5029214;28;20120;-73
2023/04/30 01:31:52;;;;;;;10.68;3.78;;;6.20;99.90;;;;;;5016240;28;20085;-73
2023/04/30 01:34:17;;;;;;;10.80;3.85;;;6.30;99.90;;;;;;5031181;28;20060;-73
2023/04/30 01:37:08;;;;;;;10.73;4.22;;;6.20;99.90;;;;;;5016928;28;20037;-73
2023/04/30 01:39:55;;;;;;;8.65;3.83;;;6.10;99.90;;;;;;5032956;28;20116;-73
2023/04/30 01:42:22;;;;;;;8.00;4.20;;;6.10;99.90;;;;;;4990722;28;20477;-73
2023/04/30 01:45:05;;;;;;;11.48;4.65;;;6.00;99.90;;;;;;5018847;28;20626;-73
2023/04/30 01:47:39;;;;;;;14.55;4.25;;;6.00;99.90;;;;;;5015401;28;20186;-73
2023/04/30 01:50:14;;;;;;;14.20;4.30;;;6.00;99.90;;;;;;5032171;28;20046;-73
2023/04/30 01:52:50;;;;;;;8.65;3.97;;;5.90;99.90;;;;;;5025121;28;20041;-73
2023/04/30 01:55:20;;;;;;;10.82;4.50;;;5.90;99.90;;;;;;5034403;28;20038;-73
2023/04/30 01:57:58;;;;;;;10.27;4.90;;;5.80;99.90;;;;;;5028767;28;20034;-73
2023/04/30 02:00:26;;;;;;;11.10;4.07;;;5.80;99.90;;;;;;5031348;28;20042;-73
2023/04/30 02:02:52;;;;;;;12.80;4.35;;;5.70;99.90;;;;;;5017749;28;20033;-73
2023/04/30 02:05:18;;;;;;;9.02;3.97;;;5.70;99.90;;;;;;5033982;28;20509;-73
2023/04/30 02:07:46;;;;;;;7.57;3.95;;;5.70;99.90;;;;;;5033586;28;20061;-73
2023/04/30 02:10:12;;;;;;;8.75;4.03;;;5.70;99.90;;;;;;5017149;28;20115;-73
2023/04/30 02:12:39;;;;;;;15.35;4.82;;;5.60;99.90;;;;;;5016025;28;20038;-73
2023/04/30 02:15:05;;;;;;;9.60;4.38;;;5.60;99.90;;;;;;5033721;28;20053;-73
2023/04/30 02:17:32;;;;;;;8.13;4.07;;;5.60;99.90;;;;;;5031169;28;20053;-74
2023/04/30 02:19:58;;;;;;;11.27;4.57;;;5.60;99.90;;;;;;5017500;28;20457;-73
2023/04/30 02:22:24;;;;;;;8.57;4.22;;;5.60;99.90;;;;;;5016708;28;20439;-73
2023/04/30 02:24:52;;;;;;;9.95;4.15;;;5.50;99.90;;;;;;5017195;28;20560;-73
2023/04/30 02:27:19;;;;;;;10.77;3.72;;;5.50;99.90;;;;;;5013815;28;20109;-73
2023/04/30 02:29:45;;;;;;;9.07;4.10;;;5.40;99.90;;;;;;5032426;28;20052;-73
2023/04/30 02:32:11;;;;;;;7.38;3.90;;;5.40;99.90;;;;;;5015646;28;20475;-73
2023/04/30 02:34:36;;;;;;;9.00;4.10;;;5.30;99.90;;;;;;5030792;28;20042;-73
2023/04/30 02:37:02;;;;;;;9.43;4.85;;;5.40;99.90;;;;;;5014529;28;20042;-71
2023/04/30 02:39:28;;;;;;;12.25;5.15;;;5.30;99.90;;;;;;5032120;28;20049;-71
2023/04/30 02:41:53;;;;;;;11.02;5.22;;;5.30;99.90;;;;;;5033582;28;20053;-70
2023/04/30 02:44:19;;;;;;;7.38;4.38;;;5.30;99.90;;;;;;5018365;28;20136;-71
2023/04/30 02:46:45;;;;;;;12.60;4.50;;;5.30;99.90;;;;;;5033047;28;20034;-71
2023/04/30 02:49:10;;;;;;;9.43;4.63;;;5.20;99.90;;;;;;5017966;28;20061;-71
2023/04/30 02:51:36;;;;;;;9.00;4.93;;;5.20;99.90;;;;;;5034031;28;20041;-72
2023/04/30 02:54:02;;;;;;;9.43;5.18;;;5.20;99.90;;;;;;5015463;28;20038;-72
2023/04/30 02:56:28;;;;;;;9.05;4.88;;;5.10;99.90;;;;;;5031768;28;20038;-72
2023/04/30 02:58:53;;;;;;;9.77;4.18;;;5.10;99.90;;;;;;4998625;28;20489;-72
2023/04/30 03:01:19;;;;;;;12.55;5.00;;;5.10;99.90;;;;;;5031125;28;20067;-72
2023/04/30 03:03:45;;;;;;;10.88;5.40;;;5.00;99.90;;;;;;5015131;28;20110;-72
2023/04/30 03:06:10;;;;;;;12.88;5.47;;;5.00;99.90;;;;;;5022435;28;20370;-72
2023/04/30 03:08:36;;;;;;;8.60;4.38;;;4.90;99.90;;;;;;5014978;28;20044;-71
2023/04/30 03:11:02;;;;;;;10.70;4.25;;;4.90;99.90;;;;;;5031424;28;20041;-71
2023/04/30 03:13:28;;;;;;;9.85;5.03;;;4.90;99.90;;;;;;5030061;28;20053;-71
2023/04/30 03:16:01;;;;;;;9.98;4.88;;;4.90;99.90;;;;;;5031002;28;20351;-72
2023/04/30 03:18:28;;;;;;;9.25;4.68;;;4.90;99.90;;;;;;5013122;28;20050;-71
2023/04/30 03:20:54;;;;;;;13.13;5.03;;;4.80;99.90;;;;;;5025808;28;20062;-72
2023/04/30 03:23:20;;;;;;;10.30;4.43;;;4.80;99.90;;;;;;5029902;28;20046;-72
2023/04/30 03:25:46;;;;;;;10.65;5.63;;;4.80;99.90;;;;;;5030354;28;20135;-72
2023/04/30 03:28:12;;;;;;;11.93;5.20;;;4.80;99.90;;;;;;5013549;28;20046;-72
2023/04/30 03:30:38;;;;;;;8.45;4.80;;;4.90;99.90;;;;;;5014626;28;20046;-72
2023/04/30 03:33:06;;;;;;;11.50;6.07;;;4.90;99.90;;;;;;5029895;28;20064;-72
2023/04/30 03:35:33;;;;;;;6.35;4.40;;;4.90;99.90;;;;;;4986981;28;20049;-72
2023/04/30 03:37:59;;;;;;;8.77;4.40;;;4.80;99.90;;;;;;5012717;28;20100;-72
2023/04/30 03:40:25;;;;;;;10.68;4.95;;;4.90;99.90;;;;;;5013589;28;20077;-72
2023/04/30 03:42:51;;;;;;;8.65;4.70;;;4.90;99.90;;;;;;5030339;28;20129;-72
2023/04/30 03:45:17;;;;;;;7.00;4.78;;;4.90;99.90;;;;;;5028668;28;20033;-72
2023/04/30 03:47:43;;;;;;;7.15;5.10;;;4.80;99.90;;;;;;5013241;28;20559;-72
2023/04/30 03:50:10;;;;;;;11.23;5.28;;;4.90;99.90;;;;;;5029531;28;20053;-72
2023/04/30 03:52:36;;;;;;;9.77;4.85;;;4.90;99.90;;;;;;5029454;28;20046;-72
2023/04/30 03:55:03;;;;;;;14.82;5.20;;;4.90;99.90;;;;;;5030637;28;20069;-72
2023/04/30 03:57:29;;;;;;;12.18;5.60;;;5.00;99.90;;;;;;5031082;28;20052;-72
2023/04/30 03:59:55;;;;;;;10.65;5.85;;;5.00;99.90;;;;;;5030873;28;20125;-72
2023/04/30 04:02:21;;;;;;;11.80;5.65;;;5.00;99.90;;;;;;5013386;28;20050;-72
2023/04/30 04:04:47;;;;;;;9.75;5.20;;;5.10;99.90;;;;;;5014464;28;20421;-72
2023/04/30 04:07:13;;;;;;;12.57;5.35;;;5.10;99.90;;;;;;5013025;28;20056;-72
2023/04/30 04:09:39;;;;;;;11.13;5.38;;;5.20;99.90;;;;;;5013404;28;20038;-72
2023/04/30 04:12:06;;;;;;;12.48;6.05;;;5.20;99.90;;;;;;5013408;28;20101;-72
2023/04/30 04:14:32;;;;;;;11.75;4.80;;;5.30;99.90;;;;;;5029103;28;20332;-72
2023/04/30 04:17:04;;;;;;;12.82;5.07;;;5.30;99.90;;;;;;5027356;28;20393;-72
2023/04/30 04:19:30;;;;;;;14.05;5.57;;;5.30;99.90;;;;;;5027807;28;20423;-72
2023/04/30 04:21:56;;;;;;;11.00;5.72;;;5.30;99.90;;;;;;5029616;28;20072;-72
2023/04/30 04:24:24;;;;;;;12.63;5.38;;;5.30;99.90;;;;;;5013553;28;20417;-72
2023/04/30 04:26:50;;;;;;;9.80;5.30;;;5.30;99.90;;;;;;5013334;28;21049;-72
2023/04/30 04:29:16;;;;;;;10.80;5.50;;;5.20;99.90;;;;;;5013545;28;20046;-72
2023/04/30 04:31:42;;;;;;;8.68;5.20;;;5.30;99.90;;;;;;5027675;28;20331;-72
2023/04/30 04:34:08;;;;;;;11.20;5.45;;;5.30;99.90;;;;;;5013635;28;20073;-72
2023/04/30 04:36:34;;;;;;;9.70;5.80;;;5.30;99.90;;;;;;5028419;28;20466;-72
2023/04/30 04:39:03;;;;;;;14.32;6.18;;;5.30;99.90;;;;;;5026327;28;20416;-71
2023/04/30 04:41:32;;;;;;;15.80;6.53;;;5.40;99.90;;;;;;5027892;28;20060;-72
2023/04/30 04:44:00;;;;;;;12.82;6.38;;;5.40;99.90;;;;;;5027849;28;20056;-72
2023/04/30 04:46:28;;;;;;;14.35;7.03;;;5.40;99.90;;;;;;5011827;28;20245;-72
2023/04/30 04:48:54;;;;;;;13.15;6.80;;;5.50;99.90;;;;;;5006806;28;20057;-72
2023/04/30 04:51:20;;;;;;;10.38;6.38;;;5.50;99.90;;;;;;5028585;28;20126;-72
2023/04/30 04:53:46;;;;;;;13.43;7.10;;;5.60;99.90;;;;;;5012374;28;20394;-71
2023/04/30 04:56:12;;;;;;;12.05;6.22;;;5.70;99.90;;;;;;5028422;28;20041;-72
2023/04/30 04:58:38;;;;;;;14.48;7.13;;;5.70;99.90;;;;;;4987235;28;20061;-72
2023/04/30 05:01:04;;;;;;;11.50;6.00;;;5.80;99.90;;;;;;5029271;28;20049;-72
2023/04/30 05:03:32;;;;;;;13.10;6.28;;;5.80;99.90;;;;;;5028020;28;20623;-72
2023/04/30 05:05:58;;;;;;;14.25;6.68;;;6.00;99.90;;;;;;5016534;28;20459;-72
2023/04/30 05:08:24;;;;;;;10.50;6.28;;;6.10;99.90;;;;;;5028377;28;20030;-72
2023/04/30 05:10:50;;;;;;;12.52;6.72;;;6.20;99.90;;;;;;5017706;28;20512;-72
2023/04/30 05:13:16;;;;;;;8.57;5.43;;;6.40;99.90;;;;;;5032734;28;20104;-72
2023/04/30 05:15:42;;;;;;;11.55;5.30;;;6.50;99.90;;;;;;5032269;28;20381;-73
2023/04/30 05:18:07;;;;;;;12.90;5.55;;;6.60;99.90;;;;;;5015088;28;20057;-72
2023/04/30 05:20:33;;;;;;;11.70;5.38;;;6.70;99.90;;;;;;5031310;28;20060;-72
2023/04/30 05:22:59;;;;;;;15.75;5.50;;;6.80;99.90;;;;;;4999956;28;20081;-72
2023/04/30 05:25:25;;;;;;;8.70;4.88;;;7.00;99.90;;;;;;4999864;28;20133;-72
2023/04/30 05:27:50;;;;;;;9.63;4.75;;;7.10;99.90;;;;;;5016765;28;20133;-72
2023/04/30 05:30:16;;;;;;;10.32;4.82;;;7.30;99.90;;;;;;5033180;28;20066;-72
2023/04/30 05:32:49;;;;;;;9.38;4.88;;;7.40;99.90;;;;;;5014651;28;20039;-72
2023/04/30 05:35:18;;;;;;;9.73;4.70;;;7.50;99.90;;;;;;5030478;28;20073;-72
2023/04/30 05:37:44;;;;;;;10.38;4.82;;;7.60;99.90;;;;;;5015447;28;20080;-72
2023/04/30 05:40:11;;;;;;;11.15;4.80;;;7.60;99.90;;;;;;5031461;28;20041;-73
2023/04/30 05:42:39;;;;;;;14.43;4.80;;;7.50;99.90;;;;;;5031374;28;20095;-72
2023/04/30 05:45:06;;;;;;;10.25;4.15;;;7.50;99.90;;;;;;5030470;28;20045;-72
2023/04/30 05:47:32;;;;;;;8.70;4.68;;;7.50;99.90;;;;;;5030119;28;20133;-72
2023/04/30 05:49:57;;;;;;;7.75;3.60;;;7.60;99.90;;;;;;5013938;28;20078;-73
2023/04/30 05:52:23;;;;;;;10.13;4.40;;;7.70;99.90;;;;;;5031094;28;20081;-72
2023/04/30 05:54:49;;;;;;;11.55;4.28;;;7.90;99.90;;;;;;5014231;28;20038;-73
2023/04/30 05:57:15;;;;;;;10.95;4.45;;;7.90;99.90;;;;;;5031324;28;20038;-72
2023/04/30 05:59:41;;;;;;;8.30;4.28;;;8.10;99.90;;;;;;5013920;28;20375;-72
2023/04/30 06:02:08;;;;;;;9.35;3.67;;;8.20;99.90;;;;;;5013597;28;20052;-73
2023/04/30 06:04:34;;;;;;;7.93;4.18;;;8.20;99.90;;;;;;4993954;28;20104;-73
2023/04/30 06:07:00;;;;;;;7.30;2.88;;;8.30;99.90;;;;;;5028340;28;20101;-73
2023/04/30 06:09:25;;;;;;;7.95;3.10;;;8.40;99.90;;;;;;5030851;28;20043;-73
2023/04/30 06:11:52;;;;;;;8.18;2.72;;;8.50;99.90;;;;;;5014447;28;20065;-73
2023/04/30 06:14:18;;;;;;;12.15;2.97;;;8.60;99.90;;;;;;5030517;28;20037;-73
2023/04/30 06:16:45;;;;;;;10.35;3.13;;;8.60;99.90;;;;;;5012722;28;20072;-74
2023/04/30 06:19:11;;;;;;;10.93;2.97;;;8.60;99.90;;;;;;5013696;28;20058;-74
2023/04/30 06:21:37;;;;;;;10.15;3.33;;;8.70;99.90;;;;;;5013670;28;20046;-74
2023/04/30 06:24:03;;;;;;;10.25;3.40;;;8.80;99.90;;;;;;5030854;28;20052;-74
2023/04/30 06:26:29;;;;;;;13.57;4.82;;;8.80;99.90;;;;;;5012604;28;20046;-74
2023/04/30 06:28:55;;;;;;;11.13;4.28;;;8.80;99.90;;;;;;5031483;28;20088;-74
2023/04/30 06:31:21;;;;;;;6.63;3.28;;;8.90;99.90;;;;;;5013574;28;20525;-74
2023/04/30 06:33:47;;;;;;;10.93;3.65;;;8.90;99.90;;;;;;5014691;28;20177;-74
2023/04/30 06:36:13;;;;;;;12.48;3.60;;;9.00;99.90;;;;;;5014667;28;20165;-74
2023/04/30 06:38:40;;;;;;;10.73;3.42;;;9.10;99.90;;;;;;5014261;28;20555;-74
2023/04/30 06:41:06;;;;;;;17.63;3.50;;;9.20;99.90;;;;;;4997362;28;20081;-74
2023/04/30 06:43:31;;;;;;;10.35;3.55;;;9.30;99.90;;;;;;5014577;28;20049;-74
2023/04/30 06:45:57;;;;;;;11.20;3.35;;;9.40;99.90;;;;;;5014472;28;20038;-72
2023/04/30 06:48:23;;;;;;;9.52;3.22;;;9.50;99.90;;;;;;5013606;28;20410;-72
2023/04/30 06:50:49;;;;;;;9.90;3.72;;;9.50;99.90;;;;;;5029565;28;20052;-72
2023/04/30 06:53:15;;;;;;;7.40;2.97;;;9.60;99.90;;;;;;5031304;28;20041;-73
2023/04/30 06:55:41;;;;;;;9.65;3.22;;;9.60;99.90;;;;;;5013965;28;20042;-73
2023/04/30 06:58:07;;;;;;;11.65;4.18;;;9.70;99.90;;;;;;5014389;28;20044;-73
2023/04/30 07:00:34;;;;;;;12.38;3.00;;;9.80;99.90;;;;;;5030593;28;20045;-73
2023/04/30 07:03:02;;;;;;;9.50;2.88;;;9.90;99.90;;;;;;5013800;28;20053;-73
2023/04/30 07:05:30;;;;;;;9.68;3.55;;;10.00;99.90;;;;;;5001245;28;20132;-73
2023/04/30 07:07:57;;;;;;;10.05;3.88;;;10.00;99.90;;;;;;5015529;28;20132;-73
2023/04/30 07:10:23;;;;;;;13.07;3.53;;;10.10;99.90;;;;;;5007140;28;20038;-73
2023/04/30 07:12:49;;;;;;;12.45;3.20;;;10.30;99.90;;;;;;5029805;28;20034;-73
2023/04/30 07:15:15;;;;;;;8.70;3.10;;;10.30;99.90;;;;;;5013709;28;20042;-73
2023/04/30 07:17:41;;;;;;;11.50;2.97;;;10.50;99.90;;;;;;5010901;28;20123;-73
2023/04/30 07:20:07;;;;;;;12.80;3.65;;;10.60;99.90;;;;;;5028530;28;20042;-74
2023/04/30 07:22:34;;;;;;;9.88;3.13;;;10.70;99.90;;;;;;4988988;28;20118;-73
2023/04/30 07:25:00;;;;;;;8.43;2.70;;;10.90;99.90;;;;;;5012547;28;20049;-73
2023/04/30 07:27:27;;;;;;;11.18;2.83;;;11.10;99.90;;;;;;5011665;28;20052;-73
2023/04/30 07:29:53;;;;;;;10.60;3.00;;;11.20;99.90;;;;;;5012635;28;20095;-74
2023/04/30 07:32:19;;;;;;;9.65;2.72;;;11.30;99.90;;;;;;5028214;28;20436;-74
2023/04/30 07:34:45;;;;;;;13.30;3.03;;;11.50;99.90;;;;;;5028452;28;20130;-74
2023/04/30 07:37:11;;;;;;;13.52;3.60;;;11.80;99.90;;;;;;5029673;28;20088;-74
2023/04/30 07:39:37;;;;;;;13.75;3.13;;;12.30;99.90;;;;;;5028029;28;20512;-74
2023/04/30 07:42:03;;;;;;;10.18;3.38;;;12.80;99.90;;;;;;5011140;28;20104;-74
2023/04/30 07:44:29;;;;;;;7.40;2.92;;;13.30;99.90;;;;;;5028368;28;20132;-74
2023/04/30 07:46:55;;;;;;;10.40;2.70;;;13.70;99.90;;;;;;5026694;28;20133;-74
2023/04/30 07:49:21;;;;;;;9.00;3.33;;;14.20;99.90;;;;;;5028134;28;20177;-74
2023/04/30 07:51:47;;;;;;;9.60;2.97;;;14.90;99.90;;;;;;5010626;28;20482;-74
2023/04/30 07:54:13;;;;;;;9.57;2.63;;;15.50;99.90;;;;;;4983191;28;20537;-74
2023/04/30 07:56:39;;;;;;;12.18;3.20;;;15.80;99.90;;;;;;5025099;28;20026;-75
2023/04/30 07:59:05;;;;;;;8.65;2.28;;;15.80;99.90;;;;;;5027918;28;20246;-74
2023/04/30 08:01:31;;;;;;;12.60;3.53;;;15.70;99.90;;;;;;5010229;28;20057;-74
2023/04/30 08:03:57;;;;;;;7.53;2.80;;;15.70;99.90;;;;;;5028068;28;20387;-76
2023/04/30 08:06:23;;;;;;;6.18;2.40;;;15.70;99.90;;;;;;5010272;28;20096;-75
2023/04/30 08:08:48;;;;;;;8.02;2.20;;;16.20;99.90;;;;;;5026853;28;20037;-76
2023/04/30 08:11:15;;;;;;;7.65;2.45;;;16.50;99.90;;;;;;5010296;28;20422;-76
2023/04/30 08:13:41;;;;;;;10.10;2.75;;;16.60;99.90;;;;;;5026997;28;20076;-76
2023/04/30 08:16:07;;;;;;;10.25;2.50;;;16.70;99.90;;;;;;5027423;28;20160;-77
2023/04/30 08:18:33;;;;;;;7.82;2.65;;;16.80;99.90;;;;;;5025817;28;20092;-76
2023/04/30 08:21:00;;;;;;;9.25;2.55;;;17.10;99.90;;;;;;5026521;28;20053;-76
2023/04/30 08:23:26;;;;;;;8.25;2.63;;;16.70;99.90;;;;;;5026620;28;20037;-76
2023/04/30 08:25:52;;;;;;;11.20;2.72;;;16.20;99.90;;;;;;5010378;28;20504;-74
2023/04/30 08:28:18;;;;;;;8.40;2.30;;;16.00;99.90;;;;;;5027390;28;20041;-74
2023/04/30 08:30:44;;;;;;;10.18;2.15;;;15.60;99.90;;;;;;5007877;28;20052;-74
2023/04/30 08:33:10;;;;;;;9.65;2.15;;;15.00;99.90;;;;;;5010918;28;20052;-75
2023/04/30 08:35:36;;;;;;;8.27;2.60;;;14.50;99.90;;;;;;5027472;28;20034;-75
2023/04/30 08:38:01;;;;;;;10.20;2.70;;;14.30;99.90;;;;;;5028287;28;20313;-75
2023/04/30 08:40:29;;;;;;;10.23;2.58;;;14.30;99.90;;;;;;4999023;28;20466;-74
2023/04/30 08:43:14;;;;;;;7.80;2.45;;;14.80;99.90;;;;;;5031720;28;20041;-75
2023/04/30 08:45:40;;;;;;;8.73;2.10;;;15.00;99.90;;;;;;5015107;28;20553;-75
2023/04/30 08:48:10;;;;;;;9.80;2.55;;;15.20;99.90;;;;;;5030876;28;20077;-76
2023/04/30 08:50:36;;;;;;;9.63;2.60;;;15.60;99.90;;;;;;5014946;28;20445;-76
2023/04/30 08:53:02;;;;;;;6.82;2.63;;;15.50;99.90;;;;;;5031281;28;20072;-75
2023/04/30 08:55:29;;;;;;;6.63;2.47;;;15.40;99.90;;;;;;5008595;28;20122;-76
2023/04/30 08:57:55;;;;;;;8.20;2.38;;;15.80;99.90;;;;;;5032235;28;20038;-76
2023/04/30 09:00:21;;;;;;;9.85;2.47;;;16.20;99.90;;;;;;4999041;28;20120;-76
2023/04/30 09:02:48;;;;;;;7.45;2.70;;;16.60;99.90;;;;;;5013792;28;20033;-76
2023/04/30 09:05:14;;;;;;;7.65;2.42;;;16.70;99.90;;;;;;5013665;28;20037;-76
2023/04/30 09:07:42;;;;;;;6.60;1.98;;;16.90;99.90;;;;;;5031078;28;20241;-75
2023/04/30 09:10:21;;;;;;;5.25;2.30;;;17.30;99.50;;;;;;5014310;28;20041;-76
2023/04/30 09:13:03;;;;;;;8.43;2.38;;;17.50;97.00;;;;;;5013271;28;20057;-76
2023/04/30 09:15:30;;;;;;;10.05;2.80;;;17.60;95.90;;;;;;5013143;28;20041;-76
2023/04/30 09:18:17;;;;;;;9.35;2.60;;;17.60;98.40;;;;;;5028458;28;20097;-76
2023/04/30 09:21:00;;;;;;;7.57;2.53;;;17.90;97.00;;;;;;5025483;28;20041;-77
2023/04/30 09:23:27;;;;;;;6.18;2.10;;;18.20;95.00;;;;;;4997629;28;20037;-76
2023/04/30 09:25:53;;;;;;;7.82;2.70;;;18.10;96.60;;;;;;5011978;28;20030;-77
2023/04/30 09:28:23;;;;;;;9.10;2.42;;;18.20;94.70;;;;;;5030735;28;20038;-77
2023/04/30 09:30:49;;;;;;;6.95;2.35;;;18.00;94.90;;;;;;4998530;28;20505;-77
2023/04/30 09:33:15;;;;;;;8.90;2.65;;;18.00;94.80;;;;;;5030500;28;20092;-77
2023/04/30 09:35:41;;;;;;;10.63;2.42;;;18.00;95.30;;;;;;5030204;28;20030;-77
2023/04/30 09:38:20;;;;;;;6.97;2.03;;;18.10;96.10;;;;;;5014654;28;20042;-76
2023/04/30 09:40:46;;;;;;;6.85;2.75;;;18.10;94.60;;;;;;5026781;28;20038;-77
2023/04/30 09:43:12;;;;;;;6.20;2.15;;;18.20;94.40;;;;;;4998209;28;20505;-77
2023/04/30 09:45:43;;;;;;;8.63;2.47;;;18.40;95.50;;;;;;4998033;28;20030;-77
2023/04/30 09:48:10;;;;;;;7.47;2.38;;;18.80;95.00;;;;;;5012286;28;20125;-77
2023/04/30 09:50:40;;;;;;;6.40;2.13;;;19.00;94.40;;;;;;5014443;28;20537;-78
2023/04/30 09:53:12;;;;;;;5.15;2.10;;;19.00;92.80;;;;;;5013798;28;20053;-78
2023/04/30 09:55:43;;;;;;;5.22;2.35;;;19.10;92.90;;;;;;5029899;28;20397;-78
2023/04/30 09:58:10;;;;;;;8.45;2.60;;;19.10;92.60;;;;;;5030601;28;20542;-77
2023/04/30 10:00:37;;;;;;;6.80;2.30;;;19.30;92.20;;;;;;5031009;28;20041;-78
2023/04/30 10:03:10;;;;;;;6.63;1.83;;;19.30;93.10;;;;;;4996922;28;20053;-78
2023/04/30 10:05:37;;;;;;;;;;;19.40;90.70;;;;;;5031296;28;20120;-77
2023/04/30 10:08:22;;;;;;;4.65;1.70;;;19.30;88.70;;;;;;4998481;28;19925;-78
2023/04/30 10:10:53;;;;;;;6.53;2.35;;;19.30;92.10;;;;;;5029951;28;20056;-78
2023/04/30 10:13:20;;;;;;;7.55;2.42;;;19.60;91.60;;;;;;5014624;28;20394;-78
2023/04/30 10:15:53;;;;;;;6.03;2.15;;;19.70;91.10;;;;;;5014091;28;20040;-78
2023/04/30 10:18:33;;;;;;;7.07;2.10;;;19.90;91.10;;;;;;4988784;28;20054;-79
2023/04/30 10:21:09;;;;;;;6.95;2.03;;;20.10;88.00;;;;;;5007621;28;20429;-78
2023/04/30 10:23:40;;;;;;;4.45;1.85;;;19.90;86.90;;;;;;5015352;28;20038;-78
2023/04/30 10:26:09;;;;;;;5.97;2.20;;;19.80;87.90;;;;;;5013479;28;20210;-77
2023/04/30 10:28:36;;;;;;;7.50;2.97;;;19.60;86.90;;;;;;5015413;28;20038;-77
2023/04/30 10:31:03;;;;;;;6.45;2.67;;;19.30;85.20;;;;;;5032747;28;20037;-78
2023/04/30 10:33:53;;;;;;;8.90;2.55;;;19.20;83.90;;;;;;4996474;28;20037;-78
2023/04/30 10:36:43;;;;;;;7.28;2.63;;;19.00;87.60;;;;;;5014590;28;20478;-78
2023/04/30 10:39:10;;;;;;;6.88;2.50;;;18.90;87.90;;;;;;5014766;28;20434;-78
2023/04/30 10:41:36;;;;;;;6.45;2.05;;;18.90;89.20;;;;;;4990961;28;20038;-77
2023/04/30 10:44:04;;;;;;;6.25;2.40;;;19.00;85.70;;;;;;5032569;28;20072;-77
2023/04/30 10:46:30;;;;;;;5.35;2.22;;;18.90;86.70;;;;;;5031419;28;20046;-78
2023/04/30 10:48:56;;;;;;;5.68;2.22;;;19.00;86.70;;;;;;4998515;28;20046;-77
2023/04/30 10:51:22;;;;;;;4.53;1.65;;;19.10;86.90;;;;;;5031889;28;20399;-78
2023/04/30 10:53:53;;;;;;;5.97;2.20;;;19.00;85.80;;;;;;5015523;28;20525;-77
2023/04/30 10:56:32;;;;;;;4.05;1.65;;;19.00;84.10;;;;;;4999995;28;20587;-77
2023/04/30 10:59:02;;;;;;;5.10;1.83;;;18.80;83.10;;;;;;5014684;28;20422;-77
2023/04/30 11:01:28;;;;;;;5.28;1.65;;;18.50;86.30;;;;;;5015200;28;20751;-77
2023/04/30 11:04:11;;;;;;;6.63;1.80;;;18.50;85.50;;;;;;5031551;28;20056;-77
2023/04/30 11:06:52;;;;;;;5.28;1.77;;;18.50;83.00;;;;;;5015860;28;20056;-77
2023/04/30 11:09:39;;;;;;;5.13;1.70;;;18.50;81.80;;;;;;5015635;28;20057;-78
2023/04/30 11:12:13;;;;;;;8.45;1.35;;;18.40;84.80;;;;;;5012042;28;20057;-77
2023/04/30 11:14:44;;;;;;;4.32;1.70;;;18.50;86.20;;;;;;4999402;28;20034;-78
2023/04/30 11:17:12;;;;;;;4.38;1.60;;;18.70;84.90;;;;;;4996917;28;20050;-77
2023/04/30 11:19:49;;;;;;;4.22;1.55;;;18.80;84.30;;;;;;5029044;28;20054;-76
2023/04/30 11:22:16;;;;;;;5.32;1.40;;;18.60;80.90;;;;;;4991829;28;20097;-76
2023/04/30 11:25:05;;;;;;;6.13;1.77;;;18.40;83.30;;;;;;5010826;28;20401;-76
2023/04/30 11:27:33;;;;;;;5.43;1.55;;;18.50;81.60;;;;;;5006140;28;20054;-77
2023/04/30 11:29:59;;;;;;;6.00;1.92;;;18.60;84.10;;;;;;4998573;28;20498;-77
2023/04/30 11:32:38;;;;;;;4.93;1.70;;;18.90;83.00;;;;;;5027777;28;20038;-76
2023/04/30 11:35:05;;;;;;;3.30;1.15;;;19.10;80.60;;;;;;5030701;28;20038;-77
2023/04/30 11:37:43;;;;;;;4.18;1.38;;;19.20;80.50;;;;;;4993556;28;20132;-76
2023/04/30 11:40:13;;;;;;;6.70;5.60;;;19.40;81.70;;;;;;4993164;28;20038;-76
2023/04/30 11:42:43;;;;;;;2.83;1.63;;;19.60;79.20;;;;;;5015946;28;20056;-77
2023/04/30 11:45:16;;;;;;;5.15;1.70;;;19.30;78.20;;;;;;5015473;28;20514;-77
2023/04/30 11:47:46;;;;;;;4.27;1.00;;;19.20;78.80;;;;;;4991917;28;20042;-76
2023/04/30 11:50:27;;;;;;;5.40;1.73;;;19.30;77.80;;;;;;5030075;28;20046;-77
2023/04/30 11:52:57;;;;;;;5.85;1.92;;;19.50;76.70;;;;;;5008645;28;20073;-77
2023/04/30 11:55:25;;;;;;;3.30;0.95;;;19.80;80.30;;;;;;5014345;28;20557;-77
2023/04/30 11:57:55;;;;;;;3.08;1.40;;;20.00;78.00;;;;;;5012437;28;20107;-78
2023/04/30 12:00:26;;;;;;;5.10;1.35;;;20.20;75.90;;;;;;5031997;28;20038;-78
2023/04/30 12:02:53;;;;;;;6.07;1.70;;;20.40;79.70;;;;;;5014866;28;20052;-78
2023/04/30 12:05:24;;;;;;;4.22;1.20;;;20.60;79.40;;;;;;5032104;28;20120;-78
2023/04/30 12:08:03;;;;;;;3.45;1.20;;;21.00;78.40;;;;;;5014729;28;20397;-77
2023/04/30 12:10:30;;;;;;;5.63;1.30;;;21.40;76.10;;;;;;4997996;28;20042;-77
2023/04/30 12:12:56;;;;;;;3.60;1.23;;;21.30;75.70;;;;;;5013867;28;20081;-77
2023/04/30 12:15:26;;;;;;;4.35;1.60;;;21.30;75.60;;;;;;5030865;28;20073;-76
2023/04/30 12:17:55;;;;;;;2.90;1.33;;;21.40;73.80;;;;;;5011963;28;20050;-77
2023/04/30 12:20:22;;;;;;;3.42;1.30;;;21.40;73.80;;;;;;5010303;28;20096;-77
2023/04/30 12:22:48;;;;;;;3.90;1.20;;;21.40;72.20;;;;;;4993589;28;20462;-77
2023/04/30 12:25:17;;;;;;;3.33;1.40;;;21.00;74.60;;;;;;5013552;28;20056;-77
2023/04/30 12:27:48;;;;;;;3.28;1.40;;;21.00;75.10;;;;;;5013490;28;20042;-76
2023/04/30 12:30:18;;;;;;;3.55;1.35;;;21.20;74.50;;;;;;5013415;28;20065;-77
2023/04/30 12:32:45;;;;;;;3.67;1.23;;;21.30;74.40;;;;;;4995422;28;20038;-76
2023/04/30 12:35:16;;;;;;;3.50;1.33;;;21.60;76.30;;;;;;5030677;28;20125;-77
2023/04/30 12:37:46;;;;;;;4.00;1.40;;;22.10;74.70;;;;;;5028694;28;20046;-77
2023/04/30 12:40:13;;;;;;;3.15;1.27;;;22.10;70.80;;;;;;5030005;28;20053;-77
2023/04/30 12:42:42;;;;;;;4.97;1.48;;;21.80;71.90;;;;;;5012027;28;20045;-77
2023/04/30 12:45:10;;;;;;;4.32;1.33;;;21.70;74.00;;;;;;4997771;28;20038;-77
2023/04/30 12:47:40;;;;;;;4.50;1.10;;;21.80;72.90;;;;;;5012659;28;20502;-77
2023/04/30 12:50:11;;;;;;;4.13;1.45;;;21.80;72.30;;;;;;5015119;28;20048;-77
2023/04/30 12:52:39;;;;;;;4.93;1.27;;;21.80;69.90;;;;;;5013566;28;20065;-76
2023/04/30 12:55:15;;;;;;;4.20;1.20;;;21.60;69.20;;;;;;4998614;28;20451;-77